ADDS METAR Data INFO
IDs: Format: Raw Decoded Include TAF

Data at: 2319 UTC 15 Jul 2018

KEKQ 152256Z AUTO 27007KT 10SM CLR 28/24 A3004 RMK AO2 SLP181 T02780239 PNO $
KEKQ 152156Z AUTO 26009KT 10SM CLR 28/23 A3005 RMK AO2 SLP184 T02830233 PNO $
KEKQ 152056Z AUTO 26011KT 250V360 10SM FEW024 29/24 A3005 RMK AO2 SLP184 6//// T02890239 PNO $
KEKQ 151956Z AUTO 10SM FEW023 29/24 A3005 RMK AO2 LTG DSNT E AND SE SLP182 T02890239 PNO $
KEKQ 151856Z AUTO 27008KT 10SM FEW024 28/24 A3007 RMK AO2 LTG DSNT SE AND S SLP188 T02830239 PNO $
KEKQ 151847Z AUTO 30006G16KT 10SM SCT024 28/24 A3007 RMK AO2 LTG DSNT SE AND S PNO $
KEKQ 151834Z AUTO 28007G16KT 10SM BKN024 28/24 RMK AO2 LTG DSNT SE PNO $
KEKQ 151756Z AUTO 28006G17KT 10SM CLR 29/24 RMK AO2 SLPNO 6//// T02890239 10294 20261 PNO $
KEKQ 151656Z AUTO 27010G14KT 10SM FEW024 SCT033 29/24 A3011 RMK AO2 SLP204 T02890239 PNO $
KEKQ 151622Z AUTO 25012KT 10SM SCT027 BKN032 BKN060 29/24 A3011 RMK AO2 PNO $
KEKQ 151608Z AUTO 10SM BKN027 29/23 A3011 RMK AO2 PNO $
KEKQ 151556Z AUTO 26010KT 10SM SCT027 BKN033 29/24 A3011 RMK AO2 SLP203 T02890239 PNO $
KEKQ 151456Z AUTO VRB06G15KT 9SM BKN022 29/23 RMK AO2 SLPNO 6//// T02890233 PNO $
KEKQ 151356Z AUTO 35007KT 250V070 10SM BKN055 27/23 A3011 RMK AO2 SLP204 T02720233 PNO $
KEKQ 151256Z AUTO 07006KT 10SM CLR 26/22 A3011 RMK AO2 SLP203 T02610222 PNO $
KEKQ 151210Z AUTO 04007KT 10SM SCT018 25/22 A3011 RMK AO2 PNO $
KEKQ 151156Z AUTO 06007KT 10SM BKN018 24/22 A3012 RMK AO2 SLP203 6//// 7//// T02390217 10239 20206 51009 PNO $
KEKQ 151142Z AUTO 04005KT 10SM BKN018 24/22 A3012 RMK AO2 PNO $
KEKQ 151056Z AUTO 28008KT 260V020 9SM FEW021 22/21 A3011 RMK AO2 SLP201 T02170211 PNO $
KEKQ 151046Z AUTO 04007KT 10SM SCT021 23/21 A3011 RMK AO2 PNO $
KEKQ 151037Z AUTO 04006KT 10SM BKN021 22/22 A3011 RMK AO2 PNO $
KEKQ 150956Z AUTO 32008KT 260V030 7SM FEW026 21/20 A3010 RMK AO2 SLP199 T02060200 PNO $
KEKQ 150856Z AUTO 02007KT 260V040 8SM CLR 21/21 A3009 RMK AO2 SLP194 6//// T02110206 55000 PNO $
KEKQ 150756Z AUTO VRB06KT 10SM CLR 23/22 A3008 RMK AO2 SLP190 T02280217 PNO $
KEKQ 150656Z AUTO 34003KT 10SM CLR 21/21 A3008 RMK AO2 SLP191 T02110206 PNO $
KEKQ 150556Z AUTO 00000KT 10SM CLR 21/20 A3009 RMK AO2 SLP194 6//// T02060200 10289 20200 55005 PNO $
KEKQ 150456Z AUTO 27007KT 10SM CLR 21/20 A3009 RMK AO2 SLP193 T02060200 PNO $
KEKQ 150356Z AUTO VRB06KT 10SM CLR 21/20 A3010 RMK AO2 SLP199 T02060200 403330178 PNO $
KEKQ 150256Z AUTO 04008KT 030V100 10SM CLR 21/20 A3010 RMK AO2 SLP202 6//// T02110200 51016 PNO $
KEKQ 150156Z AUTO 05006KT 10SM CLR 22/19 A3010 RMK AO2 SLP198 T02220189 PNO $
KEKQ 150056Z AUTO 03010KT 10SM CLR 24/22 A3008 RMK AO2 SLP193 T02390217 PNO $
KEKQ 142356Z AUTO 02010KT 10SM CLR 29/21 A3006 RMK AO2 SLP185 6//// T02890211 10333 20289 PNO $
KEKQ 142256Z AUTO 02012KT 10SM CLR 31/20 A3006 RMK AO2 SLP186 T03060200 PNO $
KEKQ 142156Z AUTO 10SM CLR 32/21 RMK AO2 SLPNO T03170206 PNO $
KEKQ 142056Z AUTO 10SM CLR 32/20 A3007 RMK AO2 SLP190 6//// T03220200 PNO $
KEKQ 141956Z AUTO VRB06KT 10SM CLR 33/20 A3011 RMK AO2 SLP201 T03330200 PNO $
KEKQ 141856Z AUTO 32007KT 290V010 10SM CLR 32/19 RMK AO2 SLPNO T03170189 PNO $
KEKQ 141756Z AUTO 26014G18KT 7SM FEW046 32/22 A3014 RMK AO2 SLP215 6//// T03220217 10322 20250 PNO $
KEKQ 141656Z AUTO 10SM FEW040 31/23 RMK AO2 SLPNO T03110228 PNO $
KEKQ 141556Z AUTO 10SM FEW029 31/23 RMK AO2 SLPNO T03060228 PNO $
KEKQ 141531Z AUTO 28009KT 130V080 10SM BKN029 BKN033 30/23 A3016 RMK AO2 PNO $
KEKQ 141456Z AUTO 26011KT 10SM CLR 29/23 A3016 RMK AO2 SLP220 6//// T02890233 51006 PNO $
KEKQ 141356Z AUTO VRB05G14KT 10SM CLR 28/23 A3015 RMK AO2 SLP218 T02780228 PNO $
KEKQ 141256Z AUTO 06007KT 10SM CLR 25/22 A3015 RMK AO2 SLP217 T02500222 PNO $
KEKQ 141156Z AUTO 33007KT 270V030 7SM FEW047 22/21 A3014 RMK AO2 SLP213 6//// 7//// T02170211 10217 20178 53009 PNO $